createdAt,value
2023-09-13T00:05:34.829Z,20.03
2023-09-13T00:08:30.476Z,22.03
2023-09-13T00:11:28.174Z,18.50
2023-09-13T00:14:18.574Z,18.80
2023-09-13T00:22:34.704Z,17.97
2023-09-13T00:25:14.587Z,19.20
2023-09-13T00:28:06.924Z,18.83
2023-09-13T00:30:42.604Z,17.60
2023-09-13T00:33:32.549Z,19.17
2023-09-13T00:36:32.282Z,18.30
2023-09-13T00:51:30.730Z,24.77
2023-09-13T00:54:13.195Z,18.87
2023-09-13T00:57:13.355Z,17.00
2023-09-13T00:59:54.633Z,18.20
2023-09-13T01:02:42.049Z,17.30
2023-09-13T01:05:28.030Z,22.27
2023-09-13T01:08:05.359Z,20.27
2023-09-13T01:10:46.411Z,20.17
2023-09-13T01:16:45.811Z,19.00
2023-09-13T01:19:41.952Z,17.23
2023-09-13T01:22:35.517Z,18.37
2023-09-13T01:25:34.812Z,16.83
2023-09-13T01:32:00.104Z,16.80
2023-09-13T02:04:43.433Z,19.53
2023-09-13T02:13:20.662Z,18.83
2023-09-13T02:16:11.544Z,20.37
2023-09-13T02:19:05.801Z,20.23
2023-09-13T02:21:53.922Z,20.80
2023-09-13T02:24:30.190Z,17.73
2023-09-13T02:27:24.413Z,18.03
2023-09-13T02:30:02.056Z,16.47
2023-09-13T02:32:49.811Z,18.63
2023-09-13T02:35:31.875Z,18.87
2023-09-13T02:38:17.546Z,23.03
2023-09-13T02:41:06.965Z,18.07
2023-09-13T02:43:49.649Z,16.77
2023-09-13T02:46:21.082Z,17.47
2023-09-13T02:48:58.948Z,17.00
2023-09-13T02:51:41.519Z,16.60
2023-09-13T02:54:28.370Z,17.07
2023-09-13T02:57:17.427Z,16.20
2023-09-13T03:00:03.340Z,17.30
2023-09-13T03:05:36.991Z,16.57
2023-09-13T03:08:15.034Z,18.53
2023-09-13T03:14:30.644Z,17.00
2023-09-13T03:17:18.706Z,15.30
2023-09-13T03:20:07.411Z,15.37
2023-09-13T03:22:52.023Z,15.83
2023-09-13T03:25:45.440Z,16.60
2023-09-13T03:28:25.583Z,17.17
2023-09-13T03:31:19.160Z,15.73
2023-09-13T03:34:18.801Z,16.70
2023-09-13T03:37:09.321Z,16.63
2023-09-13T03:42:34.785Z,17.37
2023-09-13T03:45:27.647Z,17.63
2023-09-13T03:48:33.162Z,15.37
2023-09-13T03:53:57.362Z,16.73
2023-09-13T03:56:53.193Z,15.40
2023-09-13T03:59:41.747Z,15.53
2023-09-13T04:05:25.770Z,15.37
2023-09-13T04:14:00.339Z,15.03
2023-09-13T04:16:51.261Z,17.37
2023-09-13T04:52:48.258Z,15.13
2023-09-13T05:01:43.565Z,14.10
2023-09-13T05:04:37.542Z,14.90
2023-09-13T05:07:22.728Z,15.73
2023-09-13T05:12:57.191Z,15.13
2023-09-13T05:19:45.704Z,17.70
2023-09-13T05:22:55.450Z,17.97
2023-09-13T05:32:28.475Z,14.57
2023-09-13T05:35:28.627Z,14.40
2023-09-13T05:38:30.636Z,14.23
2023-09-13T05:41:43.857Z,15.70
2023-09-13T05:46:21.566Z,15.60
2023-09-13T07:50:59.404Z,11.17
2023-09-13T08:00:27.126Z,7.67
2023-09-13T10:30:00.698Z,3.33
2023-09-13T10:36:52.349Z,12.60
2023-09-13T10:40:27.219Z,3.37
2023-09-13T10:50:56.606Z,4.13
2023-09-13T10:53:52.534Z,3.63
2023-09-13T11:03:33.294Z,4.97
2023-09-13T11:13:09.833Z,6.13
2023-09-13T11:16:27.096Z,4.40
2023-09-13T11:19:29.035Z,4.13
